WetterOnline ( http://www.wetteronline.de )

Wetter aktuell Mühldorf

Aktuelles Wetter: Mühldorf am Inn (410m)

6-stündlich | Neueste Meldungen
Ortszeit Temperatur Wetter
Di, 19.02. 13:00 11.0° C leicht bewölkt
Di, 19.02. 7:00 -5.1° C wolkig
Di, 19.02. 1:00 -2.9° C wolkenlos
Mo, 18.02. 19:00 1.2° C wolkenlos
Mo, 18.02. 13:00 8.0° C wolkenlos
Mo, 18.02. 7:00 -5.5° C wolkenlos
Mo, 18.02. 1:00 -3.1° C wolkenlos
So, 17.02. 19:00 1.8° C wolkenlos
Ortszeit Temperatur Wetter
Di, 19.02. 17:30 8.8° C bedeckt
Di, 19.02. 17:20 8.8° C bedeckt
Di, 19.02. 17:10 9.9° C bedeckt
Di, 19.02. 17:00 10.3° C bewölkt
Di, 19.02. 16:50 10.3° C bewölkt
Di, 19.02. 16:40 10.6° C bedeckt
Di, 19.02. 16:30 10.8° C wolkig
Di, 19.02. 16:00 12.0° C leicht bewölkt
Di, 19.02. 15:30 12.6° C leicht bewölkt
Di, 19.02. 15:00 11.5° C leicht bewölkt
Di, 19.02. 14:30 11.2° C leicht bewölkt
Ortszeit Relative Feuchte Sichtweite
Di, 19.02. 13:00 50% 21 km
Di, 19.02. 7:00 91% 7 km
Di, 19.02. 1:00 96% 1.4 km
Mo, 18.02. 19:00 83% 17 km
Mo, 18.02. 13:00 44% 26 km
Mo, 18.02. 7:00 93% 4.7 km
Mo, 18.02. 1:00 96% 2.8 km
So, 17.02. 19:00 81% 23 km
Ortszeit Relative Feuchte Sichtweite
Di, 19.02. 17:30 74% 25 km
Di, 19.02. 17:20 74% -
Di, 19.02. 17:10 61% -
Di, 19.02. 17:00 64% 29 km
Di, 19.02. 16:50 64% -
Di, 19.02. 16:40 61% -
Di, 19.02. 16:30 53% 28 km
Di, 19.02. 16:00 47% 30 km
Di, 19.02. 15:30 47% 27 km
Di, 19.02. 15:00 51% 21 km
Di, 19.02. 14:30 53% 26 km
Ortszeit Niederschlagsmenge Niederschlagsart
Di, 19.02. 13:00 0.0 l/m2 in 6 Std. -
Di, 19.02. 7:00 0.0 l/m2 in 12 Std. -
Di, 19.02. 1:00 0.0 l/m2 in 6 Std. -
Mo, 18.02. 19:00 0.0 l/m2 in 12 Std. -
Mo, 18.02. 13:00 0.0 l/m2 in 6 Std. -
Mo, 18.02. 7:00 0.0 l/m2 in 12 Std. -
Mo, 18.02. 1:00 0.0 l/m2 in 6 Std. -
So, 17.02. 19:00 0.0 l/m2 in 12 Std. -
Ortszeit Niederschlagsmenge Niederschlagsart
Di, 19.02. 17:30 0.0 l/m2 in 1 Std. -
Di, 19.02. 17:20 keine Meldung -
Di, 19.02. 17:10 keine Meldung -
Di, 19.02. 17:00 0.0 l/m2 in 1 Std. -
Di, 19.02. 16:50 keine Meldung -
Di, 19.02. 16:40 keine Meldung -
Di, 19.02. 16:30 0.0 l/m2 in 1 Std. -
Di, 19.02. 16:00 0.0 l/m2 in 1 Std. -
Di, 19.02. 15:30 0.0 l/m2 in 1 Std. -
Di, 19.02. 15:00 0.0 l/m2 in 1 Std. -
Di, 19.02. 14:30 0.0 l/m2 in 1 Std. -
Ortszeit Stärke Spitze Richtung
km/h Bft. km/h Grad Sektor
Di, 19.02. 13:00 20 4 30 290° W
Di, 19.02. 7:00 4 1 4 270° W
Di, 19.02. 1:00 0 0 7 - -
Mo, 18.02. 19:00 2 1 13 310° NW
Mo, 18.02. 13:00 4 1 11 40° NO
Mo, 18.02. 7:00 0 0 4 - -
Mo, 18.02. 1:00 0 0 7 - -
So, 17.02. 19:00 4 1 11 340° N
Ortszeit Stärke Spitze Richtung
km/h Bft. km/h Grad Sektor
Di, 19.02. 17:30 4 1 7 270° W
Di, 19.02. 17:20 4 1 - 270° W
Di, 19.02. 17:10 4 1 - 230° SW
Di, 19.02. 17:00 7 2 14 270° W
Di, 19.02. 16:50 7 2 - 270° W
Di, 19.02. 16:40 7 2 - 270° W
Di, 19.02. 16:30 6 1 13 300° NW
Di, 19.02. 16:00 11 2 22 290° W
Di, 19.02. 15:30 14 3 22 270° W
Di, 19.02. 15:00 17 3 28 270° W
Di, 19.02. 14:30 19 3 28 260° W
Ortszeit Untergrenze Bedeckung Gattung
total tief tief mittel hoch
Di, 19.02. 13:00 2100 m 5/8 2/8 - - -
Di, 19.02. 7:00 10500 m 8/8 0/8 - - -
Di, 19.02. 1:00 - 0/8 0/8 - - -
Mo, 18.02. 19:00 - 0/8 0/8 - - -
Mo, 18.02. 13:00 - 0/8 0/8 - - -
Mo, 18.02. 7:00 - 0/8 0/8 - - -
Mo, 18.02. 1:00 - 0/8 0/8 - - -
So, 17.02. 19:00 - 0/8 0/8 - - -
Ortszeit Bedeckungsgrad in Achtel und Wolkenuntergrenze
Di, 19.02. 17:30 8(2700m)
Di, 19.02. 17:20 8(2700m)
Di, 19.02. 17:10 8(2400m)
Di, 19.02. 17:00 7(2400m)
Di, 19.02. 16:50 7(2400m)
Di, 19.02. 16:40 2(1800m) 8(2400m)
Di, 19.02. 16:30 4(1800m) 5(2400m)
Di, 19.02. 16:00 4(1800m)
Di, 19.02. 15:30 4(1800m)
Di, 19.02. 15:00 3(1800m) 4(9000m)
Di, 19.02. 14:30 3(1800m) 5(9000m)
Ortszeit Luftdruck NN (hPa) Tendenz (hPa in 3 Std.)
Di, 19.02. 13:00 1021 - 0,7
Di, 19.02. 7:00 1024 + 0,8
Di, 19.02. 1:00 1022 + 0,2
Mo, 18.02. 19:00 1021 - 0,6
Mo, 18.02. 13:00 1023 - 1,3
Mo, 18.02. 7:00 1027 - 0,3
Mo, 18.02. 1:00 1028 - 0,3
So, 17.02. 19:00 1027 - 0,3
Ortszeit Luftdruck NN (hPa) Tendenz (hPa in 3 Std.)
Di, 19.02. 17:30 1020 - 0,5
Di, 19.02. 17:20 1020 keine Meldung
Di, 19.02. 17:10 1020 keine Meldung
Di, 19.02. 17:00 1020 - 0,7
Di, 19.02. 16:50 1020 keine Meldung
Di, 19.02. 16:40 1020 keine Meldung
Di, 19.02. 16:30 1020 - 0,8
Di, 19.02. 16:00 1020 - 0,9
Di, 19.02. 15:30 1020 - 0,8
Di, 19.02. 15:00 1020 - 0,9
Di, 19.02. 14:30 1021 - 1,3
Ortszeit Schneehöhe (cm)
Di, 19.02. 13:00 0
Di, 19.02. 7:00 0
Di, 19.02. 1:00 0
Mo, 18.02. 19:00 0
Mo, 18.02. 13:00 0
Mo, 18.02. 7:00 0
Mo, 18.02. 1:00 0
So, 17.02. 19:00 0
Ortszeit Schneehöhe (cm)
Di, 19.02. 17:30 0
Di, 19.02. 17:20 0
Di, 19.02. 17:10 0
Di, 19.02. 17:00 0
Di, 19.02. 16:50 0
Di, 19.02. 16:40 0
Di, 19.02. 16:30 0
Di, 19.02. 16:00 0
Di, 19.02. 15:30 0
Di, 19.02. 15:00 0
Di, 19.02. 14:30 0
Link zu dieser Seite / Seite empfehlen

Das Wetter in ...